Whiting, VT (05778)

1:58 AM EST on February 10, 2016 (GMT -0500)
Sawyer Needham Road | | Change Station
CLOSE
Current Station
Personal Weather Station
Location: Whiting, VT
Elevation: 410 ft
Nearby Weather Stations

Elev 410 ft 43.86 °N, 73.20 °W | Updated 4 minutes ago

Overcast
Overcast
26.8 °F
Feels Like 27 °F
N
0.0
Wind Variable Wind from SSE
Gusts 1.0 mph

Today
High -- | Low -- °F
--% Chance of Precip.
Yesterday
High -- | Low -- °F
Precip. -- in
Pressure 29.52 in
Visibility 4.0 miles
Clouds Mostly Cloudy 2800 ft
Mostly Cloudy 3400 ft
Overcast 4700 ft
Windchill 27 °F
Dew Point 24 °F
Humidity 90%
Rainfall 0.00 in
Snow Depth Not available.
6:59 AM 5:15 PM
Waxing Crescent, 4% visible
METAR K6B0 100635Z AUTO 15003KT 4SM -SN BKN028 BKN034 OVC047 M03/M04 A2952 RMK AO2 T10271045
Pressure 29.52 in
Visibility 4.0 miles
Clouds Mostly Cloudy 2800 ft
Mostly Cloudy 3400 ft
Overcast 4700 ft
Windchill 27 °F
Dew Point 24 °F
Humidity 90%
Rainfall 0.00 in
Snow Depth Not available.
6:59 AM 5:15 PM
Waxing Crescent, 4% visible
METAR K6B0 100635Z AUTO 15003KT 4SM -SN BKN028 BKN034 OVC047 M03/M04 A2952 RMK AO2 T10271045

10-Day Weather Forecast

Almanac

Astronomy

Feb. 10, 2016 Rise Set
Actual Time
Civil Twilight
Nautical Twilight
Astronomical Twilight
Moon
Length of Visible Light
Length of Day
Tomorrow will be .
, % of the Moon is Illuminated

Today's Extremes

State Highs State Lows

Community

WunderPhotos

Upload Photos

1,891,826 photos uploaded!

WunderBlog® & News

Nearby

Air Quality

  Air Quality AQ Index Pollutant
Not available.

Snow Depth

Station Depth Elevation

Earthquake Activity

City Distance Mag. Time & Date
Minimum magnitude displayed is 2.5.

Coastal Water Temperatures

Place Temperature

Stations

Nearby Weather Stations

Station Location Temp. Windchill Dew Point Humidity Wind Precip. Elev Updated Type
                   

Watches & Warnings

There are currently no watches in effect.